Accueil
METAR-TAF:

METAR-TAF

Aéroports :

Massena, New York, États-Unis

latitude: 44-56-09N, longitude: 074-50-44W, altitude: 66 m

Observation

Le bulletin a été fait il y a 49 minutes, à 09:53 UTC
Vent 3 kt de sud-ouest
Température 7°C
Humidité 93%
Pression 1018 hPa
Visibilité: 16.1 km
Ciel clair

METAR: KMSS 230953Z AUTO 22003KT 10SM CLR 07/06 A3005 RMK AO2 SLP178 T00670056

Heure: 06:42 (10:42 UTC)

Prévision

Le bulletin a été fait il y a 5 heures et 10 minutes, à 05:32 UTC
Prévision valable du 23 à 06 UTC au 24 à 06 UTC
Vent kt de nord
Visibilité: 10 km
Quelques nuages à une hauteur de 8000 ft
A partir de 23 à 1400 UTC
Vent 8 kt de ouest
Visibilité: 10 km
Quelques nuages à une hauteur de 5000 ft
A partir de 24 à 0400 UTC
Vent 6 kt de sud
Visibilité: 10 km
Quelques nuages à une hauteur de 25000 ft

TAF: KMSS 230532Z 2306/2406 00000KT P6SM FEW080 FM231400 26008KT P6SM FEW050 FM240400 19006KT P6SM FEW250

Observations et prévisions météorologiques de plus de 4000 aéroports (messages METAR et TAF).

Les stations disponibles sont représentées par des disques jaunes et rouges sur la carte.

Passer la souris dessus pour voir le nom de la station.

Cliquer dessus pour voir les observations et prévisions météorologiques.

Pour changer de carte: cliquez sur les boutons verts avec une croix noire pour zoomer, sur le bouton vert avec un tiret pour effectuer un zoom arrière, ou sur les flèches vertes pour les cartes adjacentes.


METAR-TAF: